sensor_id;sensor_type;location;lat;lon;timestamp;temperature;humidity
15384;DHT22;7790;53.022;12.968;2023-04-25T00:01:46;18.60;52.20
15384;DHT22;7790;53.022;12.968;2023-04-25T00:05:47;18.60;52.70
15384;DHT22;7790;53.022;12.968;2023-04-25T00:09:48;18.60;52.20
15384;DHT22;7790;53.022;12.968;2023-04-25T00:13:49;18.60;52.20
15384;DHT22;7790;53.022;12.968;2023-04-25T00:17:53;18.60;52.30
15384;DHT22;7790;53.022;12.968;2023-04-25T00:21:57;18.60;52.20
15384;DHT22;7790;53.022;12.968;2023-04-25T00:25:58;18.60;52.30
15384;DHT22;7790;53.022;12.968;2023-04-25T00:29:59;18.50;52.70
15384;DHT22;7790;53.022;12.968;2023-04-25T00:34:00;18.60;52.30
15384;DHT22;7790;53.022;12.968;2023-04-25T00:38:01;18.50;52.20
15384;DHT22;7790;53.022;12.968;2023-04-25T00:42:03;18.30;51.80
15384;DHT22;7790;53.022;12.968;2023-04-25T00:46:04;18.40;52.80
15384;DHT22;7790;53.022;12.968;2023-04-25T00:50:05;18.40;52.50
15384;DHT22;7790;53.022;12.968;2023-04-25T00:54:07;18.40;52.40
15384;DHT22;7790;53.022;12.968;2023-04-25T00:58:08;18.40;52.10
15384;DHT22;7790;53.022;12.968;2023-04-25T01:02:09;18.40;52.10
15384;DHT22;7790;53.022;12.968;2023-04-25T01:06:10;18.40;52.00
15384;DHT22;7790;53.022;12.968;2023-04-25T01:10:11;18.40;52.00
15384;DHT22;7790;53.022;12.968;2023-04-25T01:14:12;18.40;52.00
15384;DHT22;7790;53.022;12.968;2023-04-25T01:18:14;18.40;51.90
15384;DHT22;7790;53.022;12.968;2023-04-25T01:22:15;18.40;52.00
15384;DHT22;7790;53.022;12.968;2023-04-25T01:26:17;18.40;52.00
15384;DHT22;7790;53.022;12.968;2023-04-25T01:30:18;18.40;52.00
15384;DHT22;7790;53.022;12.968;2023-04-25T01:34:19;18.40;51.90
15384;DHT22;7790;53.022;12.968;2023-04-25T01:38:20;18.40;51.90
15384;DHT22;7790;53.022;12.968;2023-04-25T01:42:21;18.40;51.90
15384;DHT22;7790;53.022;12.968;2023-04-25T01:46:23;18.40;51.90
15384;DHT22;7790;53.022;12.968;2023-04-25T01:50:24;18.40;51.90
15384;DHT22;7790;53.022;12.968;2023-04-25T01:54:25;18.40;51.90
15384;DHT22;7790;53.022;12.968;2023-04-25T01:58:26;18.40;51.80
15384;DHT22;7790;53.022;12.968;2023-04-25T02:02:36;18.30;51.80
15384;DHT22;7790;53.022;12.968;2023-04-25T02:06:39;18.40;51.90
15384;DHT22;7790;53.022;12.968;2023-04-25T02:10:41;18.30;51.80
15384;DHT22;7790;53.022;12.968;2023-04-25T02:14:51;18.30;51.80
15384;DHT22;7790;53.022;12.968;2023-04-25T02:19:18;18.30;51.80
15384;DHT22;7790;53.022;12.968;2023-04-25T02:23:21;18.30;51.70
15384;DHT22;7790;53.022;12.968;2023-04-25T02:27:22;18.30;51.70
15384;DHT22;7790;53.022;12.968;2023-04-25T02:31:23;18.30;51.70
15384;DHT22;7790;53.022;12.968;2023-04-25T02:35:25;18.30;51.80
15384;DHT22;7790;53.022;12.968;2023-04-25T02:39:28;18.30;51.60
15384;DHT22;7790;53.022;12.968;2023-04-25T02:43:30;18.30;51.70
15384;DHT22;7790;53.022;12.968;2023-04-25T02:47:31;18.30;51.70
15384;DHT22;7790;53.022;12.968;2023-04-25T02:51:32;18.30;51.70
15384;DHT22;7790;53.022;12.968;2023-04-25T02:55:33;18.30;51.70
15384;DHT22;7790;53.022;12.968;2023-04-25T02:59:36;18.30;51.70
15384;DHT22;7790;53.022;12.968;2023-04-25T03:03:37;18.30;51.60
15384;DHT22;7790;53.022;12.968;2023-04-25T03:07:37;18.20;51.60
15384;DHT22;7790;53.022;12.968;2023-04-25T03:11:39;18.20;51.70
15384;DHT22;7790;53.022;12.968;2023-04-25T03:15:41;18.20;51.70
15384;DHT22;7790;53.022;12.968;2023-04-25T03:19:41;18.20;51.60
15384;DHT22;7790;53.022;12.968;2023-04-25T03:23:42;18.20;51.60
15384;DHT22;7790;53.022;12.968;2023-04-25T03:27:43;18.20;51.70
15384;DHT22;7790;53.022;12.968;2023-04-25T03:31:44;18.20;51.70
15384;DHT22;7790;53.022;12.968;2023-04-25T03:35:46;18.20;51.70
15384;DHT22;7790;53.022;12.968;2023-04-25T03:39:47;18.20;51.60
15384;DHT22;7790;53.022;12.968;2023-04-25T03:43:48;18.20;51.60
15384;DHT22;7790;53.022;12.968;2023-04-25T03:47:51;18.20;51.60
15384;DHT22;7790;53.022;12.968;2023-04-25T03:51:52;18.20;51.50
15384;DHT22;7790;53.022;12.968;2023-04-25T03:55:53;18.20;51.50
15384;DHT22;7790;53.022;12.968;2023-04-25T03:59:54;18.20;51.60
15384;DHT22;7790;53.022;12.968;2023-04-25T04:03:56;18.20;51.60
15384;DHT22;7790;53.022;12.968;2023-04-25T04:07:58;18.20;51.50
15384;DHT22;7790;53.022;12.968;2023-04-25T04:11:59;18.20;51.50
15384;DHT22;7790;53.022;12.968;2023-04-25T04:16:04;18.20;51.60
15384;DHT22;7790;53.022;12.968;2023-04-25T04:20:06;18.10;51.60
15384;DHT22;7790;53.022;12.968;2023-04-25T04:24:08;18.10;51.60
15384;DHT22;7790;53.022;12.968;2023-04-25T04:28:22;18.10;51.50
15384;DHT22;7790;53.022;12.968;2023-04-25T04:32:31;18.10;51.50
15384;DHT22;7790;53.022;12.968;2023-04-25T04:36:33;18.10;51.50
15384;DHT22;7790;53.022;12.968;2023-04-25T04:40:34;18.10;52.00
15384;DHT22;7790;53.022;12.968;2023-04-25T04:44:49;18.10;51.50
15384;DHT22;7790;53.022;12.968;2023-04-25T04:49:11;18.10;51.50
15384;DHT22;7790;53.022;12.968;2023-04-25T04:53:33;18.10;51.50
15384;DHT22;7790;53.022;12.968;2023-04-25T04:57:48;18.10;51.30
15384;DHT22;7790;53.022;12.968;2023-04-25T05:01:58;18.10;51.40
15384;DHT22;7790;53.022;12.968;2023-04-25T05:06:19;18.10;51.40
15384;DHT22;7790;53.022;12.968;2023-04-25T05:10:43;18.10;51.40
15384;DHT22;7790;53.022;12.968;2023-04-25T05:15:00;18.10;51.40
15384;DHT22;7790;53.022;12.968;2023-04-25T05:19:27;18.10;51.40
15384;DHT22;7790;53.022;12.968;2023-04-25T05:23:46;18.10;51.40
15384;DHT22;7790;53.022;12.968;2023-04-25T05:28:19;18.10;51.40
15384;DHT22;7790;53.022;12.968;2023-04-25T05:32:45;18.10;51.40
15384;DHT22;7790;53.022;12.968;2023-04-25T05:36:47;18.10;51.40
15384;DHT22;7790;53.022;12.968;2023-04-25T05:40:51;18.00;51.40
15384;DHT22;7790;53.022;12.968;2023-04-25T05:45:08;18.00;51.40
15384;DHT22;7790;53.022;12.968;2023-04-25T05:49:32;18.10;51.40
15384;DHT22;7790;53.022;12.968;2023-04-25T05:53:33;18.00;51.40
15384;DHT22;7790;53.022;12.968;2023-04-25T05:57:35;18.00;51.40
15384;DHT22;7790;53.022;12.968;2023-04-25T06:01:37;18.00;51.40
15384;DHT22;7790;53.022;12.968;2023-04-25T06:05:39;18.00;51.30
15384;DHT22;7790;53.022;12.968;2023-04-25T06:09:40;18.00;51.30
15384;DHT22;7790;53.022;12.968;2023-04-25T06:13:41;18.00;51.20
15384;DHT22;7790;53.022;12.968;2023-04-25T06:17:42;18.10;51.60
15384;DHT22;7790;53.022;12.968;2023-04-25T06:21:43;18.20;51.90
15384;DHT22;7790;53.022;12.968;2023-04-25T06:25:44;18.40;52.00
15384;DHT22;7790;53.022;12.968;2023-04-25T06:29:46;18.60;52.00
15384;DHT22;7790;53.022;12.968;2023-04-25T06:33:48;18.90;51.70
15384;DHT22;7790;53.022;12.968;2023-04-25T06:37:49;19.10;51.50
15384;DHT22;7790;53.022;12.968;2023-04-25T06:41:53;19.20;51.50
15384;DHT22;7790;53.022;12.968;2023-04-25T06:46:19;19.30;51.40
15384;DHT22;7790;53.022;12.968;2023-04-25T06:50:22;19.40;51.50
15384;DHT22;7790;53.022;12.968;2023-04-25T06:54:23;19.50;51.60
15384;DHT22;7790;53.022;12.968;2023-04-25T06:58:35;19.60;51.80
15384;DHT22;7790;53.022;12.968;2023-04-25T07:03:02;19.60;51.90
15384;DHT22;7790;53.022;12.968;2023-04-25T07:07:04;19.70;51.90
15384;DHT22;7790;53.022;12.968;2023-04-25T07:11:18;19.80;52.00
15384;DHT22;7790;53.022;12.968;2023-04-25T07:15:18;19.80;52.00
15384;DHT22;7790;53.022;12.968;2023-04-25T07:19:22;19.80;52.10
15384;DHT22;7790;53.022;12.968;2023-04-25T07:23:27;19.90;52.00
15384;DHT22;7790;53.022;12.968;2023-04-25T07:27:28;19.90;51.80
15384;DHT22;7790;53.022;12.968;2023-04-25T07:31:49;20.00;51.90
15384;DHT22;7790;53.022;12.968;2023-04-25T07:35:50;20.20;51.60
15384;DHT22;7790;53.022;12.968;2023-04-25T07:39:52;20.20;51.50
15384;DHT22;7790;53.022;12.968;2023-04-25T07:43:53;20.20;51.40
15384;DHT22;7790;53.022;12.968;2023-04-25T07:47:55;20.30;51.30
15384;DHT22;7790;53.022;12.968;2023-04-25T07:51:56;20.30;51.20
15384;DHT22;7790;53.022;12.968;2023-04-25T07:55:57;20.40;51.10
15384;DHT22;7790;53.022;12.968;2023-04-25T07:59:58;20.50;50.90
15384;DHT22;7790;53.022;12.968;2023-04-25T08:04:00;20.50;50.80
15384;DHT22;7790;53.022;12.968;2023-04-25T08:08:14;20.50;50.70
15384;DHT22;7790;53.022;12.968;2023-04-25T08:12:15;20.50;50.70
15384;DHT22;7790;53.022;12.968;2023-04-25T08:16:17;20.50;50.60
15384;DHT22;7790;53.022;12.968;2023-04-25T08:20:18;20.50;50.60
15384;DHT22;7790;53.022;12.968;2023-04-25T08:24:20;20.50;50.50
15384;DHT22;7790;53.022;12.968;2023-04-25T08:28:21;20.50;51.00
15384;DHT22;7790;53.022;12.968;2023-04-25T08:32:23;20.50;50.60
15384;DHT22;7790;53.022;12.968;2023-04-25T08:36:44;20.60;50.50
15384;DHT22;7790;53.022;12.968;2023-04-25T08:41:24;20.60;50.40
15384;DHT22;7790;53.022;12.968;2023-04-25T08:45:32;20.60;50.40
15384;DHT22;7790;53.022;12.968;2023-04-25T08:49:34;20.60;50.50
15384;DHT22;7790;53.022;12.968;2023-04-25T08:53:35;20.70;50.50
15384;DHT22;7790;53.022;12.968;2023-04-25T08:57:42;20.70;50.40
15384;DHT22;7790;53.022;12.968;2023-04-25T09:01:44;20.70;50.30
15384;DHT22;7790;53.022;12.968;2023-04-25T09:05:45;20.80;50.20
15384;DHT22;7790;53.022;12.968;2023-04-25T09:09:49;20.80;50.10
15384;DHT22;7790;53.022;12.968;2023-04-25T09:14:13;20.80;50.00
15384;DHT22;7790;53.022;12.968;2023-04-25T09:18:41;20.80;49.90
15384;DHT22;7790;53.022;12.968;2023-04-25T09:22:42;20.80;49.90
15384;DHT22;7790;53.022;12.968;2023-04-25T09:26:46;20.80;50.10
15384;DHT22;7790;53.022;12.968;2023-04-25T09:30:52;20.70;49.90
15384;DHT22;7790;53.022;12.968;2023-04-25T09:35:01;20.70;50.10
15384;DHT22;7790;53.022;12.968;2023-04-25T09:39:12;20.70;49.80
15384;DHT22;7790;53.022;12.968;2023-04-25T09:43:23;20.50;49.80
15384;DHT22;7790;53.022;12.968;2023-04-25T09:47:26;20.50;49.90
15384;DHT22;7790;53.022;12.968;2023-04-25T09:51:28;20.50;50.00
15384;DHT22;7790;53.022;12.968;2023-04-25T09:55:32;20.50;50.00
15384;DHT22;7790;53.022;12.968;2023-04-25T09:59:38;20.70;50.00
15384;DHT22;7790;53.022;12.968;2023-04-25T10:03:40;20.70;49.80
15384;DHT22;7790;53.022;12.968;2023-04-25T10:08:02;20.70;50.20
15384;DHT22;7790;53.022;12.968;2023-04-25T10:12:05;20.80;49.70
15384;DHT22;7790;53.022;12.968;2023-04-25T10:16:06;20.80;49.60
15384;DHT22;7790;53.022;12.968;2023-04-25T10:20:08;20.90;49.50
15384;DHT22;7790;53.022;12.968;2023-04-25T10:24:11;20.90;49.50
15384;DHT22;7790;53.022;12.968;2023-04-25T10:28:12;20.70;48.50
15384;DHT22;7790;53.022;12.968;2023-04-25T10:32:13;20.60;48.70
15384;DHT22;7790;53.022;12.968;2023-04-25T10:36:24;20.70;49.20
15384;DHT22;7790;53.022;12.968;2023-04-25T10:40:27;20.80;49.40
15384;DHT22;7790;53.022;12.968;2023-04-25T10:44:29;20.90;49.50
15384;DHT22;7790;53.022;12.968;2023-04-25T10:48:31;21.00;49.40
15384;DHT22;7790;53.022;12.968;2023-04-25T10:52:33;21.00;49.90
15384;DHT22;7790;53.022;12.968;2023-04-25T10:56:38;21.00;48.90
15384;DHT22;7790;53.022;12.968;2023-04-25T11:00:44;21.00;48.90
15384;DHT22;7790;53.022;12.968;2023-04-25T11:04:45;21.00;49.00
15384;DHT22;7790;53.022;12.968;2023-04-25T11:08:50;21.00;49.00
15384;DHT22;7790;53.022;12.968;2023-04-25T11:12:51;20.90;49.10
15384;DHT22;7790;53.022;12.968;2023-04-25T11:16:59;20.80;48.10
15384;DHT22;7790;53.022;12.968;2023-04-25T11:21:00;20.80;49.00
15384;DHT22;7790;53.022;12.968;2023-04-25T11:25:10;20.90;49.20
15384;DHT22;7790;53.022;12.968;2023-04-25T11:29:11;21.00;49.10
15384;DHT22;7790;53.022;12.968;2023-04-25T11:33:12;21.00;48.80
15384;DHT22;7790;53.022;12.968;2023-04-25T11:37:13;21.10;48.80
15384;DHT22;7790;53.022;12.968;2023-04-25T11:41:14;21.00;48.90
15384;DHT22;7790;53.022;12.968;2023-04-25T11:45:15;21.00;48.90
15384;DHT22;7790;53.022;12.968;2023-04-25T11:49:16;21.00;49.10
15384;DHT22;7790;53.022;12.968;2023-04-25T11:53:18;20.90;49.70
15384;DHT22;7790;53.022;12.968;2023-04-25T11:57:19;20.50;47.90
15384;DHT22;7790;53.022;12.968;2023-04-25T12:01:37;20.60;49.30
15384;DHT22;7790;53.022;12.968;2023-04-25T12:05:39;20.80;49.20
15384;DHT22;7790;53.022;12.968;2023-04-25T12:09:40;20.90;48.90
15384;DHT22;7790;53.022;12.968;2023-04-25T12:13:44;21.10;48.70
15384;DHT22;7790;53.022;12.968;2023-04-25T12:17:50;21.20;48.50
15384;DHT22;7790;53.022;12.968;2023-04-25T12:21:51;21.20;48.60
15384;DHT22;7790;53.022;12.968;2023-04-25T12:25:52;21.10;48.70
15384;DHT22;7790;53.022;12.968;2023-04-25T12:29:54;21.10;49.10
15384;DHT22;7790;53.022;12.968;2023-04-25T12:33:56;21.10;48.80
15384;DHT22;7790;53.022;12.968;2023-04-25T12:37:57;21.00;48.90
15384;DHT22;7790;53.022;12.968;2023-04-25T12:41:58;20.90;48.80
15384;DHT22;7790;53.022;12.968;2023-04-25T12:46:00;20.90;49.00
15384;DHT22;7790;53.022;12.968;2023-04-25T12:50:01;20.80;48.90
15384;DHT22;7790;53.022;12.968;2023-04-25T12:54:03;20.80;49.00
15384;DHT22;7790;53.022;12.968;2023-04-25T12:58:04;20.70;49.00
15384;DHT22;7790;53.022;12.968;2023-04-25T13:02:05;20.70;48.90
15384;DHT22;7790;53.022;12.968;2023-04-25T13:06:07;20.70;48.90
15384;DHT22;7790;53.022;12.968;2023-04-25T13:10:08;20.60;49.00
15384;DHT22;7790;53.022;12.968;2023-04-25T13:14:09;20.50;48.90
15384;DHT22;7790;53.022;12.968;2023-04-25T13:18:09;20.50;48.90
15384;DHT22;7790;53.022;12.968;2023-04-25T13:22:10;20.40;49.00
15384;DHT22;7790;53.022;12.968;2023-04-25T13:26:11;20.40;48.90
15384;DHT22;7790;53.022;12.968;2023-04-25T13:30:12;20.30;49.10
15384;DHT22;7790;53.022;12.968;2023-04-25T13:34:13;20.30;49.10
15384;DHT22;7790;53.022;12.968;2023-04-25T13:38:14;20.20;49.10
15384;DHT22;7790;53.022;12.968;2023-04-25T13:42:15;20.20;49.20
15384;DHT22;7790;53.022;12.968;2023-04-25T13:46:16;20.10;49.30
15384;DHT22;7790;53.022;12.968;2023-04-25T13:50:17;20.10;49.30
15384;DHT22;7790;53.022;12.968;2023-04-25T13:54:18;20.10;49.20
15384;DHT22;7790;53.022;12.968;2023-04-25T13:58:19;20.00;49.20
15384;DHT22;7790;53.022;12.968;2023-04-25T14:02:20;20.00;49.40
15384;DHT22;7790;53.022;12.968;2023-04-25T14:06:21;20.00;49.30
15384;DHT22;7790;53.022;12.968;2023-04-25T14:10:24;20.00;49.40
15384;DHT22;7790;53.022;12.968;2023-04-25T14:14:25;19.90;49.30
15384;DHT22;7790;53.022;12.968;2023-04-25T14:18:26;20.00;49.40
15384;DHT22;7790;53.022;12.968;2023-04-25T14:22:26;20.00;49.50
15384;DHT22;7790;53.022;12.968;2023-04-25T14:26:27;20.10;49.40
15384;DHT22;7790;53.022;12.968;2023-04-25T14:30:28;20.30;49.20
15384;DHT22;7790;53.022;12.968;2023-04-25T14:34:29;20.40;48.90
15384;DHT22;7790;53.022;12.968;2023-04-25T14:38:30;20.50;48.80
15384;DHT22;7790;53.022;12.968;2023-04-25T14:42:32;20.50;48.80
15384;DHT22;7790;53.022;12.968;2023-04-25T14:46:34;20.60;48.80
15384;DHT22;7790;53.022;12.968;2023-04-25T14:50:35;20.60;48.70
15384;DHT22;7790;53.022;12.968;2023-04-25T14:54:37;20.70;48.60
15384;DHT22;7790;53.022;12.968;2023-04-25T14:58:39;20.70;48.60
15384;DHT22;7790;53.022;12.968;2023-04-25T15:02:40;20.80;49.20
15384;DHT22;7790;53.022;12.968;2023-04-25T15:06:41;20.80;48.60
15384;DHT22;7790;53.022;12.968;2023-04-25T15:10:43;20.80;48.50
15384;DHT22;7790;53.022;12.968;2023-04-25T15:14:44;20.90;48.70
15384;DHT22;7790;53.022;12.968;2023-04-25T15:18:45;20.90;48.60
15384;DHT22;7790;53.022;12.968;2023-04-25T15:22:46;20.90;48.40
15384;DHT22;7790;53.022;12.968;2023-04-25T15:26:49;20.90;48.50
15384;DHT22;7790;53.022;12.968;2023-04-25T15:30:51;20.90;48.40
15384;DHT22;7790;53.022;12.968;2023-04-25T15:34:52;20.90;48.50
15384;DHT22;7790;53.022;12.968;2023-04-25T15:38:53;20.90;48.50
15384;DHT22;7790;53.022;12.968;2023-04-25T15:42:53;21.00;48.40
15384;DHT22;7790;53.022;12.968;2023-04-25T15:46:54;21.00;48.20
15384;DHT22;7790;53.022;12.968;2023-04-25T15:50:56;21.00;48.20
15384;DHT22;7790;53.022;12.968;2023-04-25T15:54:57;21.10;48.10
15384;DHT22;7790;53.022;12.968;2023-04-25T15:58:57;21.10;48.00
15384;DHT22;7790;53.022;12.968;2023-04-25T16:02:58;21.10;47.90
15384;DHT22;7790;53.022;12.968;2023-04-25T16:07:00;21.10;47.90
15384;DHT22;7790;53.022;12.968;2023-04-25T16:11:01;21.10;47.90
15384;DHT22;7790;53.022;12.968;2023-04-25T16:15:04;21.10;47.90
15384;DHT22;7790;53.022;12.968;2023-04-25T16:19:05;21.00;48.00
15384;DHT22;7790;53.022;12.968;2023-04-25T16:23:05;21.00;48.10
15384;DHT22;7790;53.022;12.968;2023-04-25T16:27:06;21.00;48.00
15384;DHT22;7790;53.022;12.968;2023-04-25T16:31:07;21.00;48.00
15384;DHT22;7790;53.022;12.968;2023-04-25T16:35:08;21.10;47.90
15384;DHT22;7790;53.022;12.968;2023-04-25T16:39:09;21.10;47.90
15384;DHT22;7790;53.022;12.968;2023-04-25T16:43:10;21.20;47.80
15384;DHT22;7790;53.022;12.968;2023-04-25T16:47:11;21.10;47.70
15384;DHT22;7790;53.022;12.968;2023-04-25T16:51:11;21.10;47.70
15384;DHT22;7790;53.022;12.968;2023-04-25T16:55:12;21.10;48.40
15384;DHT22;7790;53.022;12.968;2023-04-25T16:59:13;21.00;47.90
15384;DHT22;7790;53.022;12.968;2023-04-25T17:03:14;21.00;48.00
15384;DHT22;7790;53.022;12.968;2023-04-25T17:07:15;21.10;47.90
15384;DHT22;7790;53.022;12.968;2023-04-25T17:11:17;21.10;47.80
15384;DHT22;7790;53.022;12.968;2023-04-25T17:15:19;21.20;47.80
15384;DHT22;7790;53.022;12.968;2023-04-25T17:19:20;21.20;47.60
15384;DHT22;7790;53.022;12.968;2023-04-25T17:23:21;21.20;47.70
15384;DHT22;7790;53.022;12.968;2023-04-25T17:27:22;21.10;47.60
15384;DHT22;7790;53.022;12.968;2023-04-25T17:31:26;21.10;47.70
15384;DHT22;7790;53.022;12.968;2023-04-25T17:35:28;21.00;47.90
15384;DHT22;7790;53.022;12.968;2023-04-25T17:39:28;21.10;47.90
15384;DHT22;7790;53.022;12.968;2023-04-25T17:43:30;21.10;47.80
15384;DHT22;7790;53.022;12.968;2023-04-25T17:47:32;21.10;47.80
15384;DHT22;7790;53.022;12.968;2023-04-25T17:51:33;21.20;47.70
15384;DHT22;7790;53.022;12.968;2023-04-25T17:55:34;21.20;47.50
15384;DHT22;7790;53.022;12.968;2023-04-25T17:59:35;21.20;47.50
15384;DHT22;7790;53.022;12.968;2023-04-25T18:03:36;21.10;47.50
15384;DHT22;7790;53.022;12.968;2023-04-25T18:07:39;21.10;47.70
15384;DHT22;7790;53.022;12.968;2023-04-25T18:11:43;21.00;47.80
15384;DHT22;7790;53.022;12.968;2023-04-25T18:15:43;21.10;47.90
15384;DHT22;7790;53.022;12.968;2023-04-25T18:19:44;21.10;47.80
15384;DHT22;7790;53.022;12.968;2023-04-25T18:23:46;21.10;47.70
15384;DHT22;7790;53.022;12.968;2023-04-25T18:27:47;21.20;47.70
15384;DHT22;7790;53.022;12.968;2023-04-25T18:31:47;21.20;47.60
15384;DHT22;7790;53.022;12.968;2023-04-25T18:35:48;21.30;47.50
15384;DHT22;7790;53.022;12.968;2023-04-25T18:39:49;21.30;47.40
15384;DHT22;7790;53.022;12.968;2023-04-25T18:43:50;21.30;47.40
15384;DHT22;7790;53.022;12.968;2023-04-25T18:47:51;21.30;47.40
15384;DHT22;7790;53.022;12.968;2023-04-25T18:51:52;21.20;47.20
15384;DHT22;7790;53.022;12.968;2023-04-25T18:55:55;21.20;47.20
15384;DHT22;7790;53.022;12.968;2023-04-25T18:59:56;21.20;47.40
15384;DHT22;7790;53.022;12.968;2023-04-25T19:03:57;21.20;47.50
15384;DHT22;7790;53.022;12.968;2023-04-25T19:07:58;21.30;47.40
15384;DHT22;7790;53.022;12.968;2023-04-25T19:11:59;21.30;47.40
15384;DHT22;7790;53.022;12.968;2023-04-25T19:16:02;21.30;47.40
15384;DHT22;7790;53.022;12.968;2023-04-25T19:20:03;21.40;47.30
15384;DHT22;7790;53.022;12.968;2023-04-25T19:24:05;21.40;47.40
15384;DHT22;7790;53.022;12.968;2023-04-25T19:28:06;21.30;47.40
15384;DHT22;7790;53.022;12.968;2023-04-25T19:32:11;21.30;47.50
15384;DHT22;7790;53.022;12.968;2023-04-25T19:36:12;21.30;47.60
15384;DHT22;7790;53.022;12.968;2023-04-25T19:40:14;21.30;47.60
15384;DHT22;7790;53.022;12.968;2023-04-25T19:44:15;21.30;47.70
15384;DHT22;7790;53.022;12.968;2023-04-25T19:48:16;21.30;47.50
15384;DHT22;7790;53.022;12.968;2023-04-25T19:52:17;21.40;47.50
15384;DHT22;7790;53.022;12.968;2023-04-25T19:56:18;21.50;47.40
15384;DHT22;7790;53.022;12.968;2023-04-25T20:00:18;21.50;47.30
15384;DHT22;7790;53.022;12.968;2023-04-25T20:04:21;21.50;47.30
15384;DHT22;7790;53.022;12.968;2023-04-25T20:08:24;21.50;47.30
15384;DHT22;7790;53.022;12.968;2023-04-25T20:12:25;21.50;47.40
15384;DHT22;7790;53.022;12.968;2023-04-25T20:16:26;21.40;47.50
15384;DHT22;7790;53.022;12.968;2023-04-25T20:20:27;21.30;47.20
15384;DHT22;7790;53.022;12.968;2023-04-25T20:24:28;21.30;47.50
15384;DHT22;7790;53.022;12.968;2023-04-25T20:28:29;21.30;47.60
15384;DHT22;7790;53.022;12.968;2023-04-25T20:32:30;21.30;47.60
15384;DHT22;7790;53.022;12.968;2023-04-25T20:36:34;21.30;47.60
15384;DHT22;7790;53.022;12.968;2023-04-25T20:40:34;21.40;47.50
15384;DHT22;7790;53.022;12.968;2023-04-25T20:44:36;21.40;47.50
15384;DHT22;7790;53.022;12.968;2023-04-25T20:48:40;21.40;47.50
15384;DHT22;7790;53.022;12.968;2023-04-25T20:52:41;21.40;47.60
15384;DHT22;7790;53.022;12.968;2023-04-25T20:56:42;21.40;47.80
15384;DHT22;7790;53.022;12.968;2023-04-25T21:00:44;21.40;47.40
15384;DHT22;7790;53.022;12.968;2023-04-25T21:04:46;21.40;47.40
15384;DHT22;7790;53.022;12.968;2023-04-25T21:08:47;21.50;47.30
15384;DHT22;7790;53.022;12.968;2023-04-25T21:12:49;21.50;47.10
15384;DHT22;7790;53.022;12.968;2023-04-25T21:16:51;21.60;47.30
15384;DHT22;7790;53.022;12.968;2023-04-25T21:20:52;21.60;47.00
15384;DHT22;7790;53.022;12.968;2023-04-25T21:24:53;21.60;46.90
15384;DHT22;7790;53.022;12.968;2023-04-25T21:28:56;21.60;46.90
15384;DHT22;7790;53.022;12.968;2023-04-25T21:32:57;21.50;46.80
15384;DHT22;7790;53.022;12.968;2023-04-25T21:36:58;21.50;46.90
15384;DHT22;7790;53.022;12.968;2023-04-25T21:40:59;21.50;46.90
15384;DHT22;7790;53.022;12.968;2023-04-25T21:45:01;21.50;47.00
15384;DHT22;7790;53.022;12.968;2023-04-25T21:49:02;21.50;46.90
15384;DHT22;7790;53.022;12.968;2023-04-25T21:53:03;21.60;46.80
15384;DHT22;7790;53.022;12.968;2023-04-25T21:57:04;21.60;46.80
15384;DHT22;7790;53.022;12.968;2023-04-25T22:01:05;21.60;46.60
15384;DHT22;7790;53.022;12.968;2023-04-25T22:05:06;21.60;46.60
15384;DHT22;7790;53.022;12.968;2023-04-25T22:09:07;21.70;46.60
15384;DHT22;7790;53.022;12.968;2023-04-25T22:13:08;21.70;46.60
15384;DHT22;7790;53.022;12.968;2023-04-25T22:17:09;21.60;46.50
15384;DHT22;7790;53.022;12.968;2023-04-25T22:21:12;21.60;46.60
15384;DHT22;7790;53.022;12.968;2023-04-25T22:25:14;21.60;46.60
15384;DHT22;7790;53.022;12.968;2023-04-25T22:29:15;21.60;46.70
15384;DHT22;7790;53.022;12.968;2023-04-25T22:33:16;21.60;46.60
15384;DHT22;7790;53.022;12.968;2023-04-25T22:37:17;21.60;46.50
15384;DHT22;7790;53.022;12.968;2023-04-25T22:41:18;21.60;46.40
15384;DHT22;7790;53.022;12.968;2023-04-25T22:45:19;21.60;46.40
15384;DHT22;7790;53.022;12.968;2023-04-25T22:49:20;21.60;46.30
15384;DHT22;7790;53.022;12.968;2023-04-25T22:53:21;21.70;46.40
15384;DHT22;7790;53.022;12.968;2023-04-25T22:57:22;21.70;46.30
15384;DHT22;7790;53.022;12.968;2023-04-25T23:01:23;21.60;46.50
15384;DHT22;7790;53.022;12.968;2023-04-25T23:05:24;21.60;46.50
15384;DHT22;7790;53.022;12.968;2023-04-25T23:09:25;21.60;46.50
15384;DHT22;7790;53.022;12.968;2023-04-25T23:13:27;21.60;46.50
15384;DHT22;7790;53.022;12.968;2023-04-25T23:17:28;21.60;46.40
15384;DHT22;7790;53.022;12.968;2023-04-25T23:21:28;21.60;46.40
15384;DHT22;7790;53.022;12.968;2023-04-25T23:25:29;21.60;46.40
15384;DHT22;7790;53.022;12.968;2023-04-25T23:29:31;21.70;46.30
15384;DHT22;7790;53.022;12.968;2023-04-25T23:33:33;21.70;46.20
15384;DHT22;7790;53.022;12.968;2023-04-25T23:37:35;21.70;46.20
15384;DHT22;7790;53.022;12.968;2023-04-25T23:41:36;21.80;46.20
15384;DHT22;7790;53.022;12.968;2023-04-25T23:45:37;21.80;46.10
15384;DHT22;7790;53.022;12.968;2023-04-25T23:49:39;21.80;46.10
15384;DHT22;7790;53.022;12.968;2023-04-25T23:53:40;21.70;46.10
15384;DHT22;7790;53.022;12.968;2023-04-25T23:57:41;21.70;46.10
